^^
Saratoga-Weather Station Historical Data
Daily Summary for January 23, 2022 Units:  Both    English   Metric
Daily Weekly Monthly Yearly Custom
  High: Low: Average:
Temperature: 42.4 °F /  5.8 °C 38.3 °F /  3.5 °C 40.3 °F /  4.6 °C
Dew Point: 37.8 °F /  3.2 °C 34.5 °F /  1.4 °C 36 °F /  2.2 °C
Humidity: 91% 76% 85%
Wind Speed: 6.9mph /  11.1km/h - 1.3mph /  2.1km/h
Wind Gust: 9mph /  14.5km/h - -
Wind- - ESE
Pressure: 30.6 in /  1035.2 hPa 30.5 in /  1032.8 hPa -
Precipitation: 0 in /  0.0 mm    
Historical Graphs
 
 
Tabular Data for January 23, 2022
Time Temperature Dew Point Pressure Wind Wind Speed Wind Gust Humidity Rainfall Rate (Hourly) solar
00:03 40.1 °F /  4.5 °C 37.8 °F /  3.2 °C 30.6in /  1034.5hPa West 2mph /  3.2km/h 3mph /  4.8km/h 91% 0in /  0.0mm 0 W/m2
00:08 40.1 °F /  4.5 °C 37.8 °F /  3.2 °C 30.6in /  1034.5hPa West 0.9mph /  1.4km/h 4mph /  6.4km/h 91% 0in /  0.0mm 0 W/m2
00:13 40.1 °F /  4.5 °C 37.8 °F /  3.2 °C 30.6in /  1034.5hPa WSW 2.9mph /  4.7km/h 5mph /  8km/h 91% 0in /  0.0mm 0 W/m2
00:18 40.1 °F /  4.5 °C 37.8 °F /  3.2 °C 30.6in /  1034.5hPa West 2mph /  3.2km/h 4mph /  6.4km/h 91% 0in /  0.0mm 0 W/m2
00:23 40.1 °F /  4.5 °C 37.8 °F /  3.2 °C 30.6in /  1034.5hPa West 0.9mph /  1.4km/h 5mph /  8km/h 91% 0in /  0.0mm 0 W/m2
00:28 40.1 °F /  4.5 °C 37.4 °F /  3 °C 30.6in /  1034.5hPa West 0.9mph /  1.4km/h 3mph /  4.8km/h 90% 0in /  0.0mm 0 W/m2
00:33 40.1 °F /  4.5 °C 37.4 °F /  3 °C 30.6in /  1034.5hPa WNW 2mph /  3.2km/h 5mph /  8km/h 90% 0in /  0.0mm 0 W/m2
00:38 40.1 °F /  4.5 °C 37.4 °F /  3 °C 30.6in /  1034.5hPa WNW 0.9mph /  1.4km/h 4mph /  6.4km/h 90% 0in /  0.0mm 0 W/m2
00:43 40.1 °F /  4.5 °C 37.4 °F /  3 °C 30.6in /  1034.5hPa West 0.9mph /  1.4km/h 4mph /  6.4km/h 90% 0in /  0.0mm 0 W/m2
00:48 40.1 °F /  4.5 °C 37.4 °F /  3 °C 30.6in /  1034.5hPa West 4mph /  6.4km/h 4mph /  6.4km/h 90% 0in /  0.0mm 0 W/m2
00:53 40.1 °F /  4.5 °C 37.4 °F /  3 °C 30.6in /  1034.5hPa West 0.9mph /  1.4km/h 2mph /  3.2km/h 90% 0in /  0.0mm 0 W/m2
00:58 40.3 °F /  4.6 °C 37.6 °F /  3.1 °C 30.6in /  1034.5hPa West 2mph /  3.2km/h 2mph /  3.2km/h 90% 0in /  0.0mm 0 W/m2
01:03 40.3 °F /  4.6 °C 37.6 °F /  3.1 °C 30.6in /  1034.5hPa Calm     90% 0in /  0.0mm 0 W/m2
01:08 40.3 °F /  4.6 °C 37.6 °F /  3.1 °C 30.6in /  1034.5hPa NW 0.9mph /  1.4km/h 1mph /  1.6km/h 90% 0in /  0.0mm 0 W/m2
01:13 40.1 °F /  4.5 °C 37.4 °F /  3 °C 30.6in /  1034.5hPa NW 0.9mph /  1.4km/h 2mph /  3.2km/h 90% 0in /  0.0mm 0 W/m2
01:18 40.1 °F /  4.5 °C 37.8 °F /  3.2 °C 30.6in /  1034.5hPa NW 0.9mph /  1.4km/h 3mph /  4.8km/h 91% 0in /  0.0mm 0 W/m2
01:23 39.9 °F /  4.4 °C 37.6 °F /  3.1 °C 30.6in /  1034.5hPa West 0.9mph /  1.4km/h 2mph /  3.2km/h 91% 0in /  0.0mm 0 W/m2
01:28 39.9 °F /  4.4 °C 37.6 °F /  3.1 °C 30.6in /  1034.5hPa West 0.9mph /  1.4km/h 2mph /  3.2km/h 91% 0in /  0.0mm 0 W/m2
01:33 39.7 °F /  4.3 °C 37.4 °F /  3 °C 30.6in /  1034.5hPa Calm   1mph /  1.6km/h 91% 0in /  0.0mm 0 W/m2
01:38 39.7 °F /  4.3 °C 37.4 °F /  3 °C 30.6in /  1034.5hPa Calm     91% 0in /  0.0mm 0 W/m2
01:43 39.7 °F /  4.3 °C 37.4 °F /  3 °C 30.6in /  1034.5hPa Calm   2mph /  3.2km/h 91% 0in /  0.0mm 0 W/m2
01:48 39.7 °F /  4.3 °C 37.4 °F /  3 °C 30.6in /  1034.9hPa Calm     91% 0in /  0.0mm 0 W/m2
01:53 39.7 °F /  4.3 °C 37.4 °F /  3 °C 30.6in /  1034.9hPa Calm   2mph /  3.2km/h 91% 0in /  0.0mm 0 W/m2
01:58 39.7 °F /  4.3 °C 37.4 °F /  3 °C 30.6in /  1034.9hPa Calm     91% 0in /  0.0mm 0 W/m2
02:03 39.7 °F /  4.3 °C 37.4 °F /  3 °C 30.6in /  1034.9hPa Calm   1mph /  1.6km/h 91% 0in /  0.0mm 0 W/m2
02:08 39.7 °F /  4.3 °C 37.4 °F /  3 °C 30.6in /  1034.5hPa Calm     91% 0in /  0.0mm 0 W/m2
02:13 39.6 °F /  4.2 °C 37.2 °F /  2.9 °C 30.6in /  1034.5hPa Calm     91% 0in /  0.0mm 0 W/m2
02:18 39.6 °F /  4.2 °C 37.2 °F /  2.9 °C 30.6in /  1034.5hPa Calm     91% 0in /  0.0mm 0 W/m2
02:23 39.6 °F /  4.2 °C 37.2 °F /  2.9 °C 30.6in /  1034.5hPa Calm     91% 0in /  0.0mm 0 W/m2
02:28 39.6 °F /  4.2 °C 37.2 °F /  2.9 °C 30.6in /  1034.5hPa Calm     91% 0in /  0.0mm 0 W/m2
02:33 39.6 °F /  4.2 °C 37.2 °F /  2.9 °C 30.6in /  1034.5hPa Calm     91% 0in /  0.0mm 0 W/m2
02:38 39.4 °F /  4.1 °C 37 °F /  2.8 °C 30.6in /  1034.5hPa Calm     91% 0in /  0.0mm 0 W/m2
02:43 39.4 °F /  4.1 °C 37 °F /  2.8 °C 30.6in /  1034.5hPa Calm     91% 0in /  0.0mm 0 W/m2
02:48 39.4 °F /  4.1 °C 37 °F /  2.8 °C 30.6in /  1034.5hPa Calm     91% 0in /  0.0mm 0 W/m2
02:53 39.2 °F /  4 °C 36.9 °F /  2.7 °C 30.6in /  1034.5hPa Calm     91% 0in /  0.0mm 0 W/m2
02:58 39.2 °F /  4 °C 36.9 °F /  2.7 °C 30.5in /  1034.2hPa Calm     91% 0in /  0.0mm 0 W/m2
03:03 39 °F /  3.9 °C 36.7 °F /  2.6 °C 30.5in /  1034.2hPa Calm     91% 0in /  0.0mm 0 W/m2
03:08 39 °F /  3.9 °C 36.7 °F /  2.6 °C 30.5in /  1034.2hPa Calm   2mph /  3.2km/h 91% 0in /  0.0mm 0 W/m2
03:13 39 °F /  3.9 °C 36.7 °F /  2.6 °C 30.6in /  1034.5hPa Calm     91% 0in /  0.0mm 0 W/m2
03:18 39 °F /  3.9 °C 36.7 °F /  2.6 °C 30.5in /  1034.2hPa Calm   2mph /  3.2km/h 91% 0in /  0.0mm 0 W/m2
03:23 39.2 °F /  4 °C 36.9 °F /  2.7 °C 30.6in /  1034.5hPa Calm     91% 0in /  0.0mm 0 W/m2
03:28 39.2 °F /  4 °C 36.5 °F /  2.5 °C 30.6in /  1034.5hPa Calm     90% 0in /  0.0mm 0 W/m2
03:33 39.2 °F /  4 °C 36.5 °F /  2.5 °C 30.5in /  1034.2hPa Calm     90% 0in /  0.0mm 0 W/m2
03:38 39.2 °F /  4 °C 36.5 °F /  2.5 °C 30.5in /  1034.2hPa Calm     90% 0in /  0.0mm 0 W/m2
03:43 39.2 °F /  4 °C 36.5 °F /  2.5 °C 30.5in /  1034.2hPa Calm     90% 0in /  0.0mm 0 W/m2
03:48 39.2 °F /  4 °C 36.5 °F /  2.5 °C 30.5in /  1034.2hPa Calm     90% 0in /  0.0mm 0 W/m2
03:53 39 °F /  3.9 °C 36.3 °F /  2.4 °C 30.5in /  1034.2hPa Calm     90% 0in /  0.0mm 0 W/m2
03:58 39 °F /  3.9 °C 36.3 °F /  2.4 °C 30.5in /  1034.2hPa Calm     90% 0in /  0.0mm 0 W/m2
04:03 38.8 °F /  3.8 °C 36.1 °F /  2.3 °C 30.5in /  1033.9hPa Calm     90% 0in /  0.0mm 0 W/m2
04:08 38.8 °F /  3.8 °C 36.5 °F /  2.5 °C 30.5in /  1033.9hPa Calm     91% 0in /  0.0mm 0 W/m2
04:13 38.8 °F /  3.8 °C 36.5 °F /  2.5 °C 30.5in /  1033.9hPa Calm     91% 0in /  0.0mm 0 W/m2
04:18 38.7 °F /  3.7 °C 36 °F /  2.2 °C 30.5in /  1033.9hPa Calm     90% 0in /  0.0mm 0 W/m2
04:23 38.7 °F /  3.7 °C 36.3 °F /  2.4 °C 30.5in /  1033.9hPa Calm     91% 0in /  0.0mm 0 W/m2
04:28 38.7 °F /  3.7 °C 36.3 °F /  2.4 °C 30.5in /  1033.9hPa Calm     91% 0in /  0.0mm 0 W/m2
04:33 38.7 °F /  3.7 °C 36.3 °F /  2.4 °C 30.5in /  1033.9hPa Calm     91% 0in /  0.0mm 0 W/m2
04:38 38.5 °F /  3.6 °C 36.1 °F /  2.3 °C 30.5in /  1033.9hPa Calm     91% 0in /  0.0mm 0 W/m2
04:43 38.5 °F /  3.6 °C 36.1 °F /  2.3 °C 30.5in /  1033.9hPa Calm     91% 0in /  0.0mm 0 W/m2
04:48 38.5 °F /  3.6 °C 36.1 °F /  2.3 °C 30.5in /  1033.9hPa Calm     91% 0in /  0.0mm 0 W/m2
04:53 38.5 °F /  3.6 °C 36.1 °F /  2.3 °C 30.5in /  1033.9hPa Calm     91% 0in /  0.0mm 0 W/m2
04:58 38.5 °F /  3.6 °C 36.1 °F /  2.3 °C 30.5in /  1034.2hPa Calm     91% 0in /  0.0mm 0 W/m2
05:03 38.3 °F /  3.5 °C 36 °F /  2.2 °C 30.5in /  1034.2hPa Calm     91% 0in /  0.0mm 0 W/m2
05:08 38.3 °F /  3.5 °C 36 °F /  2.2 °C 30.5in /  1034.2hPa WNW 2mph /  3.2km/h 2mph /  3.2km/h 91% 0in /  0.0mm 0 W/m2
05:13 38.5 °F /  3.6 °C 36.1 °F /  2.3 °C 30.5in /  1034.2hPa Calm     91% 0in /  0.0mm 0 W/m2
05:18 38.5 °F /  3.6 °C 36.1 °F /  2.3 °C 30.5in /  1034.2hPa Calm     91% 0in /  0.0mm 0 W/m2
05:23 38.7 °F /  3.7 °C 36.3 °F /  2.4 °C 30.5in /  1034.2hPa Calm     91% 0in /  0.0mm 0 W/m2
05:28 38.7 °F /  3.7 °C 36.3 °F /  2.4 °C 30.5in /  1034.2hPa WNW 0.9mph /  1.4km/h 1mph /  1.6km/h 91% 0in /  0.0mm 0 W/m2
05:33 38.7 °F /  3.7 °C 36 °F /  2.2 °C 30.5in /  1034.2hPa NW 0.9mph /  1.4km/h 1mph /  1.6km/h 90% 0in /  0.0mm 0 W/m2
05:38 38.7 °F /  3.7 °C 36 °F /  2.2 °C 30.5in /  1034.2hPa North 0.9mph /  1.4km/h 3mph /  4.8km/h 90% 0in /  0.0mm 0 W/m2
05:43 38.8 °F /  3.8 °C 36.1 °F /  2.3 °C 30.5in /  1034.2hPa Calm   2mph /  3.2km/h 90% 0in /  0.0mm 0 W/m2
05:48 38.8 °F /  3.8 °C 36 °F /  2.2 °C 30.5in /  1034.2hPa Calm   3mph /  4.8km/h 89% 0in /  0.0mm 0 W/m2
05:53 38.8 °F /  3.8 °C 36 °F /  2.2 °C 30.5in /  1034.2hPa Calm   2mph /  3.2km/h 89% 0in /  0.0mm 0 W/m2
05:59 39 °F /  3.9 °C 36.1 °F /  2.3 °C 30.5in /  1034.2hPa Calm     89% 0in /  0.0mm 0 W/m2
06:04 39 °F /  3.9 °C 36.1 °F /  2.3 °C 30.5in /  1034.2hPa Calm     89% 0in /  0.0mm 0 W/m2
06:09 39 °F /  3.9 °C 36.1 °F /  2.3 °C 30.5in /  1034.2hPa Calm     89% 0in /  0.0mm 0 W/m2
06:14 39 °F /  3.9 °C 36.1 °F /  2.3 °C 30.5in /  1034.2hPa Calm     89% 0in /  0.0mm 0 W/m2
06:19 39 °F /  3.9 °C 36.1 °F /  2.3 °C 30.5in /  1034.2hPa Calm     89% 0in /  0.0mm 0 W/m2
06:24 38.8 °F /  3.8 °C 36 °F /  2.2 °C 30.5in /  1034.2hPa Calm     89% 0in /  0.0mm 0 W/m2
06:29 38.8 °F /  3.8 °C 36 °F /  2.2 °C 30.5in /  1034.2hPa Calm     89% 0in /  0.0mm 0 W/m2
06:34 38.8 °F /  3.8 °C 36 °F /  2.2 °C 30.5in /  1034.2hPa Calm     89% 0in /  0.0mm 0 W/m2
06:39 38.8 °F /  3.8 °C 36 °F /  2.2 °C 30.5in /  1034.2hPa Calm     89% 0in /  0.0mm 0 W/m2
06:44 38.7 °F /  3.7 °C 35.8 °F /  2.1 °C 30.5in /  1034.2hPa Calm     89% 0in /  0.0mm 0 W/m2
06:49 38.7 °F /  3.7 °C 36 °F /  2.2 °C 30.5in /  1034.2hPa Calm     90% 0in /  0.0mm 0 W/m2
06:54 38.5 °F /  3.6 °C 35.8 °F /  2.1 °C 30.5in /  1034.2hPa Calm   2mph /  3.2km/h 90% 0in /  0.0mm 0 W/m2
06:59 38.5 °F /  3.6 °C 35.8 °F /  2.1 °C 30.5in /  1034.2hPa Calm     90% 0in /  0.0mm 0 W/m2
07:04 38.5 °F /  3.6 °C 35.8 °F /  2.1 °C 30.5in /  1034.2hPa Calm   2mph /  3.2km/h 90% 0in /  0.0mm 0 W/m2
07:09 38.5 °F /  3.6 °C 35.8 °F /  2.1 °C 30.5in /  1034.2hPa Calm     90% 0in /  0.0mm 0 W/m2
07:14 38.5 °F /  3.6 °C 35.8 °F /  2.1 °C 30.5in /  1034.2hPa Calm     90% 0in /  0.0mm 0 W/m2
07:19 38.7 °F /  3.7 °C 36 °F /  2.2 °C 30.6in /  1034.5hPa Calm     90% 0in /  0.0mm 0 W/m2
07:24 38.5 °F /  3.6 °C 35.8 °F /  2.1 °C 30.5in /  1034.2hPa Calm     90% 0in /  0.0mm 0 W/m2
07:29 38.7 °F /  3.7 °C 36 °F /  2.2 °C 30.5in /  1034.2hPa Calm     90% 0in /  0.0mm 0 W/m2
07:34 38.7 °F /  3.7 °C 36 °F /  2.2 °C 30.5in /  1034.2hPa Calm     90% 0in /  0.0mm 0 W/m2
07:39 38.7 °F /  3.7 °C 36 °F /  2.2 °C 30.6in /  1034.5hPa Calm     90% 0in /  0.0mm 0 W/m2
07:44 38.7 °F /  3.7 °C 36 °F /  2.2 °C 30.6in /  1034.5hPa Calm     90% 0in /  0.0mm 0 W/m2
07:49 38.7 °F /  3.7 °C 36 °F /  2.2 °C 30.6in /  1034.5hPa Calm     90% 0in /  0.0mm 0 W/m2
07:54 38.7 °F /  3.7 °C 36 °F /  2.2 °C 30.6in /  1034.5hPa Calm     90% 0in /  0.0mm 0 W/m2
07:59 38.7 °F /  3.7 °C 36 °F /  2.2 °C 30.6in /  1034.9hPa Calm     90% 0in /  0.0mm 0 W/m2
08:04 38.7 °F /  3.7 °C 36 °F /  2.2 °C 30.6in /  1034.9hPa NE 0.9mph /  1.4km/h 1mph /  1.6km/h 90% 0in /  0.0mm 0 W/m2
08:09 38.7 °F /  3.7 °C 36 °F /  2.2 °C 30.6in /  1034.9hPa Calm   1mph /  1.6km/h 90% 0in /  0.0mm 0 W/m2
08:14 38.7 °F /  3.7 °C 36 °F /  2.2 °C 30.6in /  1034.9hPa Calm     90% 0in /  0.0mm 0 W/m2
08:19 38.7 °F /  3.7 °C 35.8 °F /  2.1 °C 30.6in /  1034.9hPa Calm     89% 0in /  0.0mm 0 W/m2
08:24 38.7 °F /  3.7 °C 35.8 °F /  2.1 °C 30.6in /  1034.9hPa Calm   2mph /  3.2km/h 89% 0in /  0.0mm 0 W/m2
08:29 38.7 °F /  3.7 °C 35.8 °F /  2.1 °C 30.6in /  1034.9hPa NE 0.9mph /  1.4km/h 1mph /  1.6km/h 89% 0in /  0.0mm 0 W/m2
08:34 38.7 °F /  3.7 °C 35.8 °F /  2.1 °C 30.6in /  1034.9hPa Calm     89% 0in /  0.0mm 0 W/m2
08:39 38.7 °F /  3.7 °C 35.8 °F /  2.1 °C 30.6in /  1035.2hPa ENE 0.9mph /  1.4km/h 2mph /  3.2km/h 89% 0in /  0.0mm 5 W/m2
08:44 38.8 °F /  3.8 °C 36.1 °F /  2.3 °C 30.6in /  1035.2hPa Calm   2mph /  3.2km/h 90% 0in /  0.0mm 7 W/m2
08:49 38.8 °F /  3.8 °C 36.1 °F /  2.3 °C 30.6in /  1035.2hPa Calm     90% 0in /  0.0mm 7 W/m2
08:54 38.8 °F /  3.8 °C 36.1 °F /  2.3 °C 30.6in /  1035.2hPa Calm   2mph /  3.2km/h 90% 0in /  0.0mm 9 W/m2
08:59 38.8 °F /  3.8 °C 36.1 °F /  2.3 °C 30.6in /  1035.2hPa Calm     90% 0in /  0.0mm 12 W/m2
09:04 38.8 °F /  3.8 °C 36.1 °F /  2.3 °C 30.6in /  1035.2hPa Calm   2mph /  3.2km/h 90% 0in /  0.0mm 14 W/m2
09:09 38.8 °F /  3.8 °C 36.1 °F /  2.3 °C 30.6in /  1035.2hPa Calm   1mph /  1.6km/h 90% 0in /  0.0mm 19 W/m2
09:14 38.8 °F /  3.8 °C 36 °F /  2.2 °C 30.6in /  1035.2hPa Calm     89% 0in /  0.0mm 19 W/m2
09:19 39 °F /  3.9 °C 36.1 °F /  2.3 °C 30.6in /  1035.2hPa Calm   1mph /  1.6km/h 89% 0in /  0.0mm 21 W/m2
09:24 39 °F /  3.9 °C 36.1 °F /  2.3 °C 30.6in /  1035.2hPa ENE 0.9mph /  1.4km/h 2mph /  3.2km/h 89% 0in /  0.0mm 21 W/m2
09:29 39.2 °F /  4 °C 36.3 °F /  2.4 °C 30.6in /  1035.2hPa Calm     89% 0in /  0.0mm 23 W/m2
09:34 39.4 °F /  4.1 °C 36.1 °F /  2.3 °C 30.6in /  1035.2hPa Calm   2mph /  3.2km/h 88% 0in /  0.0mm 26 W/m2
09:39 39.4 °F /  4.1 °C 36.1 °F /  2.3 °C 30.6in /  1035.2hPa Calm   1mph /  1.6km/h 88% 0in /  0.0mm 28 W/m2
09:44 39.6 °F /  4.2 °C 36 °F /  2.2 °C 30.6in /  1035.2hPa Calm   1mph /  1.6km/h 87% 0in /  0.0mm 32 W/m2
09:49 39.6 °F /  4.2 °C 36 °F /  2.2 °C 30.6in /  1035.2hPa Calm     87% 0in /  0.0mm 32 W/m2
09:54 39.7 °F /  4.3 °C 36.1 °F /  2.3 °C 30.6in /  1035.2hPa Calm     87% 0in /  0.0mm 33 W/m2
09:59 39.7 °F /  4.3 °C 36 °F /  2.2 °C 30.6in /  1035.2hPa East 0.9mph /  1.4km/h 2mph /  3.2km/h 86% 0in /  0.0mm 37 W/m2
10:04 39.9 °F /  4.4 °C 36.1 °F /  2.3 °C 30.6in /  1035.2hPa Calm   3mph /  4.8km/h 86% 0in /  0.0mm 42 W/m2
10:09 39.9 °F /  4.4 °C 36.1 °F /  2.3 °C 30.6in /  1035.2hPa Calm     86% 0in /  0.0mm 44 W/m2
10:14 40.1 °F /  4.5 °C 36.3 °F /  2.4 °C 30.6in /  1035.2hPa Calm   2mph /  3.2km/h 86% 0in /  0.0mm 51 W/m2
10:19 40.3 °F /  4.6 °C 36.5 °F /  2.5 °C 30.6in /  1035.2hPa SE 2.9mph /  4.7km/h 3mph /  4.8km/h 86% 0in /  0.0mm 51 W/m2
10:24 40.5 °F /  4.7 °C 36.3 °F /  2.4 °C 30.6in /  1035.2hPa SE 2.9mph /  4.7km/h 4mph /  6.4km/h 85% 0in /  0.0mm 49 W/m2
10:29 40.6 °F /  4.8 °C 36.1 °F /  2.3 °C 30.6in /  1035.2hPa SSE 0.9mph /  1.4km/h 3mph /  4.8km/h 84% 0in /  0.0mm 54 W/m2
10:34 40.6 °F /  4.8 °C 36.1 °F /  2.3 °C 30.6in /  1035.2hPa ESE 2mph /  3.2km/h 4mph /  6.4km/h 84% 0in /  0.0mm 62 W/m2
10:39 40.8 °F /  4.9 °C 36.1 °F /  2.3 °C 30.6in /  1035.2hPa ESE 2mph /  3.2km/h 6mph /  9.7km/h 83% 0in /  0.0mm 65 W/m2
10:44 41 °F /  5 °C 36.3 °F /  2.4 °C 30.6in /  1035.2hPa East 0.9mph /  1.4km/h 3mph /  4.8km/h 83% 0in /  0.0mm 72 W/m2
10:49 41.2 °F /  5.1 °C 36.5 °F /  2.5 °C 30.6in /  1035.2hPa ESE 4mph /  6.4km/h 4mph /  6.4km/h 83% 0in /  0.0mm 69 W/m2
10:54 41.4 °F /  5.2 °C 36.3 °F /  2.4 °C 30.6in /  1035.2hPa Calm   3mph /  4.8km/h 82% 0in /  0.0mm 77 W/m2
10:59 41.4 °F /  5.2 °C 36.3 °F /  2.4 °C 30.6in /  1035.2hPa ESE 2.9mph /  4.7km/h 4mph /  6.4km/h 82% 0in /  0.0mm 74 W/m2
11:04 41.4 °F /  5.2 °C 36.3 °F /  2.4 °C 30.6in /  1035.2hPa Calm   3mph /  4.8km/h 82% 0in /  0.0mm 70 W/m2
11:09 41.4 °F /  5.2 °C 36.3 °F /  2.4 °C 30.6in /  1035.2hPa ESE 2.9mph /  4.7km/h 4mph /  6.4km/h 82% 0in /  0.0mm 70 W/m2
11:14 41.4 °F /  5.2 °C 36.3 °F /  2.4 °C 30.6in /  1035.2hPa SE 0.9mph /  1.4km/h 3mph /  4.8km/h 82% 0in /  0.0mm 76 W/m2
11:19 41.5 °F /  5.3 °C 36.5 °F /  2.5 °C 30.6in /  1035.2hPa East 2mph /  3.2km/h 2mph /  3.2km/h 82% 0in /  0.0mm 76 W/m2
11:24 41.5 °F /  5.3 °C 36.5 °F /  2.5 °C 30.6in /  1035.2hPa Calm   3mph /  4.8km/h 82% 0in /  0.0mm 81 W/m2
11:29 41.5 °F /  5.3 °C 36.5 °F /  2.5 °C 30.6in /  1035.2hPa ENE 0.9mph /  1.4km/h 3mph /  4.8km/h 82% 0in /  0.0mm 83 W/m2
11:34 41.5 °F /  5.3 °C 36.5 °F /  2.5 °C 30.6in /  1035.2hPa NE 2.9mph /  4.7km/h 3mph /  4.8km/h 82% 0in /  0.0mm 83 W/m2
11:39 41.5 °F /  5.3 °C 36.5 °F /  2.5 °C 30.6in /  1035.2hPa NE 2.9mph /  4.7km/h 4mph /  6.4km/h 82% 0in /  0.0mm 83 W/m2
11:44 41.7 °F /  5.4 °C 36.7 °F /  2.6 °C 30.6in /  1035.2hPa ENE 2mph /  3.2km/h 4mph /  6.4km/h 82% 0in /  0.0mm 76 W/m2
11:49 41.7 °F /  5.4 °C 36.7 °F /  2.6 °C 30.6in /  1035.2hPa ENE 0.9mph /  1.4km/h 3mph /  4.8km/h 82% 0in /  0.0mm 77 W/m2
11:54 41.7 °F /  5.4 °C 36.9 °F /  2.7 °C 30.6in /  1035.2hPa North 2mph /  3.2km/h 4mph /  6.4km/h 83% 0in /  0.0mm 79 W/m2
11:59 41.7 °F /  5.4 °C 36.9 °F /  2.7 °C 30.6in /  1034.9hPa NE 4mph /  6.4km/h 4mph /  6.4km/h 83% 0in /  0.0mm 84 W/m2
12:04 41.7 °F /  5.4 °C 36.7 °F /  2.6 °C 30.6in /  1034.9hPa ENE 0.9mph /  1.4km/h 4mph /  6.4km/h 82% 0in /  0.0mm 86 W/m2
12:09 41.9 °F /  5.5 °C 36.9 °F /  2.7 °C 30.6in /  1034.9hPa East 0.9mph /  1.4km/h 3mph /  4.8km/h 82% 0in /  0.0mm 93 W/m2
12:14 41.9 °F /  5.5 °C 36.9 °F /  2.7 °C 30.6in /  1034.9hPa East 2mph /  3.2km/h 4mph /  6.4km/h 82% 0in /  0.0mm 97 W/m2
12:19 42.1 °F /  5.6 °C 37 °F /  2.8 °C 30.6in /  1034.5hPa Calm   4mph /  6.4km/h 82% 0in /  0.0mm 98 W/m2
12:24 42.1 °F /  5.6 °C 36.7 °F /  2.6 °C 30.6in /  1034.5hPa ENE 0.9mph /  1.4km/h 4mph /  6.4km/h 81% 0in /  0.0mm 93 W/m2
12:29 42.3 °F /  5.7 °C 36.9 °F /  2.7 °C 30.6in /  1034.9hPa NE 0.9mph /  1.4km/h 3mph /  4.8km/h 81% 0in /  0.0mm 90 W/m2
12:34 42.3 °F /  5.7 °C 36.9 °F /  2.7 °C 30.6in /  1034.5hPa Calm   4mph /  6.4km/h 81% 0in /  0.0mm 84 W/m2
12:39 42.4 °F /  5.8 °C 37 °F /  2.8 °C 30.6in /  1034.5hPa East 0.9mph /  1.4km/h 3mph /  4.8km/h 81% 0in /  0.0mm 86 W/m2
12:44 42.4 °F /  5.8 °C 36.7 °F /  2.6 °C 30.6in /  1034.5hPa ESE 0.9mph /  1.4km/h 5mph /  8km/h 80% 0in /  0.0mm 86 W/m2
12:49 42.4 °F /  5.8 °C 36.7 °F /  2.6 °C 30.6in /  1034.5hPa Calm   3mph /  4.8km/h 80% 0in /  0.0mm 90 W/m2
12:54 42.4 °F /  5.8 °C 36.7 °F /  2.6 °C 30.6in /  1034.5hPa Calm   6mph /  9.7km/h 80% 0in /  0.0mm 93 W/m2
13:00 42.4 °F /  5.8 °C 36.3 °F /  2.4 °C 30.6in /  1034.5hPa East 2.9mph /  4.7km/h 4mph /  6.4km/h 79% 0in /  0.0mm 93 W/m2
13:05 42.4 °F /  5.8 °C 36.7 °F /  2.6 °C 30.6in /  1034.5hPa NE 0.9mph /  1.4km/h 6mph /  9.7km/h 80% 0in /  0.0mm 90 W/m2
13:10 42.4 °F /  5.8 °C 36.7 °F /  2.6 °C 30.6in /  1034.5hPa ENE 2.9mph /  4.7km/h 4mph /  6.4km/h 80% 0in /  0.0mm 77 W/m2
13:15 42.3 °F /  5.7 °C 36.5 °F /  2.5 °C 30.6in /  1034.5hPa Calm   5mph /  8km/h 80% 0in /  0.0mm 88 W/m2
13:20 42.4 °F /  5.8 °C 36.7 °F /  2.6 °C 30.5in /  1034.2hPa ESE 4.9mph /  7.9km/h 5mph /  8km/h 80% 0in /  0.0mm 79 W/m2
13:25 42.4 °F /  5.8 °C 36.3 °F /  2.4 °C 30.5in /  1034.2hPa ENE 2.9mph /  4.7km/h 5mph /  8km/h 79% 0in /  0.0mm 77 W/m2
13:30 42.4 °F /  5.8 °C 36.3 °F /  2.4 °C 30.5in /  1034.2hPa ENE 2mph /  3.2km/h 2mph /  3.2km/h 79% 0in /  0.0mm 70 W/m2
13:35 42.4 °F /  5.8 °C 36.3 °F /  2.4 °C 30.5in /  1034.2hPa East 0.9mph /  1.4km/h 5mph /  8km/h 79% 0in /  0.0mm 62 W/m2
13:40 42.4 °F /  5.8 °C 36.1 °F /  2.3 °C 30.5in /  1034.2hPa East 4mph /  6.4km/h 4mph /  6.4km/h 78% 0in /  0.0mm 53 W/m2
13:45 42.4 °F /  5.8 °C 36.1 °F /  2.3 °C 30.5in /  1034.2hPa East 2mph /  3.2km/h 5mph /  8km/h 78% 0in /  0.0mm 54 W/m2
13:50 42.3 °F /  5.7 °C 36 °F /  2.2 °C 30.5in /  1034.2hPa ESE 2mph /  3.2km/h 7mph /  11.3km/h 78% 0in /  0.0mm 53 W/m2
13:55 42.3 °F /  5.7 °C 36 °F /  2.2 °C 30.5in /  1034.2hPa ENE 2.9mph /  4.7km/h 5mph /  8km/h 78% 0in /  0.0mm 49 W/m2
14:00 42.3 °F /  5.7 °C 36 °F /  2.2 °C 30.5in /  1033.9hPa ESE 2.9mph /  4.7km/h 8mph /  12.9km/h 78% 0in /  0.0mm 49 W/m2
14:05 42.1 °F /  5.6 °C 35.8 °F /  2.1 °C 30.5in /  1033.9hPa East 4mph /  6.4km/h 4mph /  6.4km/h 78% 0in /  0.0mm 44 W/m2
14:10 42.1 °F /  5.6 °C 36 °F /  2.2 °C 30.5in /  1033.9hPa ENE 2mph /  3.2km/h 6mph /  9.7km/h 79% 0in /  0.0mm 42 W/m2
14:15 42.1 °F /  5.6 °C 36 °F /  2.2 °C 30.5in /  1033.9hPa Calm   6mph /  9.7km/h 79% 0in /  0.0mm 46 W/m2
14:20 41.9 °F /  5.5 °C 35.8 °F /  2.1 °C 30.5in /  1033.9hPa SE 4.9mph /  7.9km/h 5mph /  8km/h 79% 0in /  0.0mm 51 W/m2
14:25 42.1 °F /  5.6 °C 36.3 °F /  2.4 °C 30.5in /  1033.9hPa ESE 0.9mph /  1.4km/h 5mph /  8km/h 80% 0in /  0.0mm 65 W/m2
14:30 42.1 °F /  5.6 °C 35.8 °F /  2.1 °C 30.5in /  1033.9hPa SE 4mph /  6.4km/h 4mph /  6.4km/h 78% 0in /  0.0mm 84 W/m2
14:35 42.1 °F /  5.6 °C 35.4 °F /  1.9 °C 30.5in /  1033.9hPa SE 2mph /  3.2km/h 7mph /  11.3km/h 77% 0in /  0.0mm 76 W/m2
14:40 42.1 °F /  5.6 °C 35.4 °F /  1.9 °C 30.5in /  1033.5hPa Calm   3mph /  4.8km/h 77% 0in /  0.0mm 70 W/m2
14:45 42.3 °F /  5.7 °C 35.6 °F /  2 °C 30.5in /  1033.5hPa East 0.9mph /  1.4km/h 4mph /  6.4km/h 77% 0in /  0.0mm 62 W/m2
14:50 42.3 °F /  5.7 °C 35.6 °F /  2 °C 30.5in /  1033.5hPa ENE 4.9mph /  7.9km/h 6mph /  9.7km/h 77% 0in /  0.0mm 54 W/m2
14:55 42.3 °F /  5.7 °C 35.2 °F /  1.8 °C 30.5in /  1033.9hPa ENE 2mph /  3.2km/h 3mph /  4.8km/h 76% 0in /  0.0mm 53 W/m2
15:00 42.3 °F /  5.7 °C 35.6 °F /  2 °C 30.5in /  1033.9hPa ENE 2.9mph /  4.7km/h 4mph /  6.4km/h 77% 0in /  0.0mm 51 W/m2
15:05 42.3 °F /  5.7 °C 35.6 °F /  2 °C 30.5in /  1033.5hPa SE 2mph /  3.2km/h 3mph /  4.8km/h 77% 0in /  0.0mm 47 W/m2
15:10 42.3 °F /  5.7 °C 35.6 °F /  2 °C 30.5in /  1033.5hPa ENE 0.9mph /  1.4km/h 6mph /  9.7km/h 77% 0in /  0.0mm 44 W/m2
15:15 42.3 °F /  5.7 °C 36 °F /  2.2 °C 30.5in /  1033.5hPa ESE 2mph /  3.2km/h 3mph /  4.8km/h 78% 0in /  0.0mm 42 W/m2
15:20 42.1 °F /  5.6 °C 35.8 °F /  2.1 °C 30.5in /  1033.5hPa ENE 2.9mph /  4.7km/h 7mph /  11.3km/h 78% 0in /  0.0mm 39 W/m2
15:25 42.1 °F /  5.6 °C 35.8 °F /  2.1 °C 30.5in /  1033.5hPa ENE 4mph /  6.4km/h 4mph /  6.4km/h 78% 0in /  0.0mm 39 W/m2
15:30 42.1 °F /  5.6 °C 35.8 °F /  2.1 °C 30.5in /  1033.5hPa East 2mph /  3.2km/h 5mph /  8km/h 78% 0in /  0.0mm 39 W/m2
15:35 42.1 °F /  5.6 °C 35.8 °F /  2.1 °C 30.5in /  1033.5hPa ENE 4.9mph /  7.9km/h 5mph /  8km/h 78% 0in /  0.0mm 37 W/m2
15:40 41.9 °F /  5.5 °C 35.8 °F /  2.1 °C 30.5in /  1033.5hPa ENE 2.9mph /  4.7km/h 3mph /  4.8km/h 79% 0in /  0.0mm 35 W/m2
15:45 41.9 °F /  5.5 °C 35.8 °F /  2.1 °C 30.5in /  1033.5hPa NE 2mph /  3.2km/h 3mph /  4.8km/h 79% 0in /  0.0mm 32 W/m2
15:50 41.9 °F /  5.5 °C 35.8 °F /  2.1 °C 30.5in /  1033.5hPa Calm   3mph /  4.8km/h 79% 0in /  0.0mm 33 W/m2
15:55 41.7 °F /  5.4 °C 35.8 °F /  2.1 °C 30.5in /  1033.5hPa East 0.9mph /  1.4km/h 4mph /  6.4km/h 79% 0in /  0.0mm 30 W/m2
16:01 41.7 °F /  5.4 °C 35.8 °F /  2.1 °C 30.5in /  1033.5hPa NE 4mph /  6.4km/h 4mph /  6.4km/h 79% 0in /  0.0mm 28 W/m2
16:06 41.7 °F /  5.4 °C 35.8 °F /  2.1 °C 30.5in /  1033.5hPa ENE 2.9mph /  4.7km/h 4mph /  6.4km/h 79% 0in /  0.0mm 23 W/m2
16:11 41.7 °F /  5.4 °C 35.8 °F /  2.1 °C 30.5in /  1033.5hPa ENE 2mph /  3.2km/h 4mph /  6.4km/h 79% 0in /  0.0mm 21 W/m2
16:16 41.5 °F /  5.3 °C 35.6 °F /  2 °C 30.5in /  1033.5hPa NE 6.9mph /  11.1km/h 9mph /  14.5km/h 79% 0in /  0.0mm 19 W/m2
16:21 41.5 °F /  5.3 °C 35.6 °F /  2 °C 30.5in /  1033.5hPa NE 4mph /  6.4km/h 7mph /  11.3km/h 79% 0in /  0.0mm 18 W/m2
16:26 41.5 °F /  5.3 °C 35.6 °F /  2 °C 30.5in /  1033.5hPa NE 4mph /  6.4km/h 9mph /  14.5km/h 79% 0in /  0.0mm 18 W/m2
16:31 41.5 °F /  5.3 °C 35.6 °F /  2 °C 30.5in /  1033.5hPa East 0.9mph /  1.4km/h 4mph /  6.4km/h 79% 0in /  0.0mm 14 W/m2
16:36 41.5 °F /  5.3 °C 35.6 °F /  2 °C 30.5in /  1033.5hPa ENE 2.9mph /  4.7km/h 4mph /  6.4km/h 79% 0in /  0.0mm 12 W/m2
16:41 41.5 °F /  5.3 °C 35.6 °F /  2 °C 30.5in /  1033.5hPa NE 2.9mph /  4.7km/h 5mph /  8km/h 79% 0in /  0.0mm 11 W/m2
16:46 41.4 °F /  5.2 °C 35.4 °F /  1.9 °C 30.5in /  1033.2hPa East 2.9mph /  4.7km/h 4mph /  6.4km/h 79% 0in /  0.0mm 9 W/m2
16:51 41.4 °F /  5.2 °C 35.6 °F /  2 °C 30.5in /  1033.2hPa ESE 4mph /  6.4km/h 7mph /  11.3km/h 80% 0in /  0.0mm 9 W/m2
16:56 41.2 °F /  5.1 °C 35.4 °F /  1.9 °C 30.5in /  1033.2hPa Calm   5mph /  8km/h 80% 0in /  0.0mm 7 W/m2
17:01 41.2 °F /  5.1 °C 35.4 °F /  1.9 °C 30.5in /  1033.2hPa NE 2.9mph /  4.7km/h 4mph /  6.4km/h 80% 0in /  0.0mm 7 W/m2
17:06 41 °F /  5 °C 35.2 °F /  1.8 °C 30.5in /  1033.2hPa East 0.9mph /  1.4km/h 5mph /  8km/h 80% 0in /  0.0mm 5 W/m2
17:11 41 °F /  5 °C 35.2 °F /  1.8 °C 30.5in /  1033.2hPa ESE 2mph /  3.2km/h 4mph /  6.4km/h 80% 0in /  0.0mm 0 W/m2
17:16 40.8 °F /  4.9 °C 35.1 °F /  1.7 °C 30.5in /  1033.2hPa SE 2mph /  3.2km/h 4mph /  6.4km/h 80% 0in /  0.0mm 0 W/m2
17:21 40.8 °F /  4.9 °C 35.4 °F /  1.9 °C 30.5in /  1033.2hPa SSE 2mph /  3.2km/h 4mph /  6.4km/h 81% 0in /  0.0mm 0 W/m2
17:26 40.8 °F /  4.9 °C 35.4 °F /  1.9 °C 30.5in /  1033.2hPa ESE 0.9mph /  1.4km/h 6mph /  9.7km/h 81% 0in /  0.0mm 0 W/m2
17:31 40.6 °F /  4.8 °C 35.2 °F /  1.8 °C 30.5in /  1033.2hPa East 0.9mph /  1.4km/h 3mph /  4.8km/h 81% 0in /  0.0mm 0 W/m2
17:36 40.6 °F /  4.8 °C 35.2 °F /  1.8 °C 30.5in /  1033.2hPa ENE 0.9mph /  1.4km/h 6mph /  9.7km/h 81% 0in /  0.0mm 0 W/m2
17:41 40.6 °F /  4.8 °C 35.2 °F /  1.8 °C 30.5in /  1033.2hPa ESE 0.9mph /  1.4km/h 2mph /  3.2km/h 81% 0in /  0.0mm 0 W/m2
17:46 40.6 °F /  4.8 °C 35.6 °F /  2 °C 30.5in /  1033.5hPa NE 0.9mph /  1.4km/h 2mph /  3.2km/h 82% 0in /  0.0mm 0 W/m2
17:51 40.6 °F /  4.8 °C 35.6 °F /  2 °C 30.5in /  1033.5hPa East 0.9mph /  1.4km/h 1mph /  1.6km/h 82% 0in /  0.0mm 0 W/m2
17:56 40.6 °F /  4.8 °C 35.6 °F /  2 °C 30.5in /  1033.5hPa ESE 2.9mph /  4.7km/h 6mph /  9.7km/h 82% 0in /  0.0mm 0 W/m2
18:01 40.6 °F /  4.8 °C 35.6 °F /  2 °C 30.5in /  1033.2hPa Calm   2mph /  3.2km/h 82% 0in /  0.0mm 0 W/m2
18:06 40.5 °F /  4.7 °C 35.1 °F /  1.7 °C 30.5in /  1033.2hPa NE 0.9mph /  1.4km/h 6mph /  9.7km/h 81% 0in /  0.0mm 0 W/m2
18:11 40.5 °F /  4.7 °C 35.1 °F /  1.7 °C 30.5in /  1033.2hPa ENE 2mph /  3.2km/h 4mph /  6.4km/h 81% 0in /  0.0mm 0 W/m2
18:16 40.6 °F /  4.8 °C 35.2 °F /  1.8 °C 30.5in /  1033.2hPa East 2.9mph /  4.7km/h 7mph /  11.3km/h 81% 0in /  0.0mm 0 W/m2
18:21 40.5 °F /  4.7 °C 35.1 °F /  1.7 °C 30.5in /  1033.2hPa East 0.9mph /  1.4km/h 2mph /  3.2km/h 81% 0in /  0.0mm 0 W/m2
18:26 40.5 °F /  4.7 °C 35.1 °F /  1.7 °C 30.5in /  1033.2hPa East 4mph /  6.4km/h 4mph /  6.4km/h 81% 0in /  0.0mm 0 W/m2
18:31 40.5 °F /  4.7 °C 35.1 °F /  1.7 °C 30.5in /  1033.2hPa ESE 2.9mph /  4.7km/h 3mph /  4.8km/h 81% 0in /  0.0mm 0 W/m2
18:36 40.5 °F /  4.7 °C 35.4 °F /  1.9 °C 30.5in /  1033.2hPa NE 0.9mph /  1.4km/h 3mph /  4.8km/h 82% 0in /  0.0mm 0 W/m2
18:41 40.5 °F /  4.7 °C 35.4 °F /  1.9 °C 30.5in /  1033.2hPa East 2mph /  3.2km/h 3mph /  4.8km/h 82% 0in /  0.0mm 0 W/m2
18:46 40.3 °F /  4.6 °C 35.2 °F /  1.8 °C 30.5in /  1033.2hPa ENE 2mph /  3.2km/h 6mph /  9.7km/h 82% 0in /  0.0mm 0 W/m2
18:51 40.3 °F /  4.6 °C 35.2 °F /  1.8 °C 30.5in /  1033.2hPa East 2.9mph /  4.7km/h 4mph /  6.4km/h 82% 0in /  0.0mm 0 W/m2
18:56 40.3 °F /  4.6 °C 35.2 °F /  1.8 °C 30.5in /  1033.2hPa ESE 2mph /  3.2km/h 6mph /  9.7km/h 82% 0in /  0.0mm 0 W/m2
19:01 40.3 °F /  4.6 °C 35.2 °F /  1.8 °C 30.5in /  1033.2hPa ESE 0.9mph /  1.4km/h 3mph /  4.8km/h 82% 0in /  0.0mm 0 W/m2
19:06 40.3 °F /  4.6 °C 35.2 °F /  1.8 °C 30.5in /  1033.2hPa East 2.9mph /  4.7km/h 7mph /  11.3km/h 82% 0in /  0.0mm 0 W/m2
19:11 40.3 °F /  4.6 °C 35.2 °F /  1.8 °C 30.5in /  1033.2hPa East 0.9mph /  1.4km/h 3mph /  4.8km/h 82% 0in /  0.0mm 0 W/m2
19:16 40.3 °F /  4.6 °C 35.2 °F /  1.8 °C 30.5in /  1033.2hPa ESE 0.9mph /  1.4km/h 7mph /  11.3km/h 82% 0in /  0.0mm 0 W/m2
19:21 40.3 °F /  4.6 °C 35.2 °F /  1.8 °C 30.5in /  1033.2hPa ESE 0.9mph /  1.4km/h 3mph /  4.8km/h 82% 0in /  0.0mm 0 W/m2
19:26 40.5 °F /  4.7 °C 35.4 °F /  1.9 °C 30.5in /  1033.2hPa ENE 2mph /  3.2km/h 3mph /  4.8km/h 82% 0in /  0.0mm 0 W/m2
19:31 40.5 °F /  4.7 °C 35.4 °F /  1.9 °C 30.5in /  1033.2hPa ESE 2mph /  3.2km/h 4mph /  6.4km/h 82% 0in /  0.0mm 0 W/m2
19:36 40.5 °F /  4.7 °C 35.4 °F /  1.9 °C 30.5in /  1033.2hPa SE 2.9mph /  4.7km/h 6mph /  9.7km/h 82% 0in /  0.0mm 0 W/m2
19:41 40.5 °F /  4.7 °C 35.4 °F /  1.9 °C 30.5in /  1033.2hPa ESE 2.9mph /  4.7km/h 4mph /  6.4km/h 82% 0in /  0.0mm 0 W/m2
19:46 40.5 °F /  4.7 °C 35.4 °F /  1.9 °C 30.5in /  1033.2hPa East 2mph /  3.2km/h 6mph /  9.7km/h 82% 0in /  0.0mm 0 W/m2
19:51 40.6 °F /  4.8 °C 35.6 °F /  2 °C 30.5in /  1033.2hPa ESE 0.9mph /  1.4km/h 3mph /  4.8km/h 82% 0in /  0.0mm 0 W/m2
19:56 40.6 °F /  4.8 °C 35.6 °F /  2 °C 30.5in /  1033.2hPa ESE 2mph /  3.2km/h 3mph /  4.8km/h 82% 0in /  0.0mm 0 W/m2
20:01 40.6 °F /  4.8 °C 35.6 °F /  2 °C 30.5in /  1033.2hPa ESE 0.9mph /  1.4km/h 3mph /  4.8km/h 82% 0in /  0.0mm 0 W/m2
20:06 40.6 °F /  4.8 °C 35.6 °F /  2 °C 30.5in /  1033.2hPa ESE 0.9mph /  1.4km/h 2mph /  3.2km/h 82% 0in /  0.0mm 0 W/m2
20:11 40.6 °F /  4.8 °C 35.6 °F /  2 °C 30.5in /  1033.2hPa ENE 0.9mph /  1.4km/h 4mph /  6.4km/h 82% 0in /  0.0mm 0 W/m2
20:16 40.6 °F /  4.8 °C 35.6 °F /  2 °C 30.5in /  1033.2hPa ESE 0.9mph /  1.4km/h 2mph /  3.2km/h 82% 0in /  0.0mm 0 W/m2
20:21 40.6 °F /  4.8 °C 35.6 °F /  2 °C 30.5in /  1033.2hPa ESE 2mph /  3.2km/h 2mph /  3.2km/h 82% 0in /  0.0mm 0 W/m2
20:26 40.6 °F /  4.8 °C 35.6 °F /  2 °C 30.5in /  1033.2hPa Calm   3mph /  4.8km/h 82% 0in /  0.0mm 0 W/m2
20:31 40.6 °F /  4.8 °C 35.6 °F /  2 °C 30.5in /  1033.2hPa East 2mph /  3.2km/h 2mph /  3.2km/h 82% 0in /  0.0mm 0 W/m2
20:36 40.6 °F /  4.8 °C 35.6 °F /  2 °C 30.5in /  1033.2hPa Calm   4mph /  6.4km/h 82% 0in /  0.0mm 0 W/m2
20:41 40.6 °F /  4.8 °C 35.6 °F /  2 °C 30.5in /  1033.2hPa ESE 0.9mph /  1.4km/h 7mph /  11.3km/h 82% 0in /  0.0mm 0 W/m2
20:46 40.6 °F /  4.8 °C 35.6 °F /  2 °C 30.5in /  1033.2hPa ESE 2mph /  3.2km/h 4mph /  6.4km/h 82% 0in /  0.0mm 0 W/m2
20:51 40.6 °F /  4.8 °C 35.6 °F /  2 °C 30.5in /  1033.5hPa ESE 4mph /  6.4km/h 4mph /  6.4km/h 82% 0in /  0.0mm 0 W/m2
20:56 40.6 °F /  4.8 °C 35.6 °F /  2 °C 30.5in /  1033.5hPa Calm   4mph /  6.4km/h 82% 0in /  0.0mm 0 W/m2
21:01 40.6 °F /  4.8 °C 35.6 °F /  2 °C 30.5in /  1033.2hPa East 2mph /  3.2km/h 6mph /  9.7km/h 82% 0in /  0.0mm 0 W/m2
21:06 40.8 °F /  4.9 °C 35.8 °F /  2.1 °C 30.5in /  1033.2hPa East 0.9mph /  1.4km/h 3mph /  4.8km/h 82% 0in /  0.0mm 0 W/m2
21:11 40.8 °F /  4.9 °C 35.8 °F /  2.1 °C 30.5in /  1033.2hPa East 0.9mph /  1.4km/h 4mph /  6.4km/h 82% 0in /  0.0mm 0 W/m2
21:16 40.8 °F /  4.9 °C 35.8 °F /  2.1 °C 30.5in /  1033.2hPa ESE 2mph /  3.2km/h 3mph /  4.8km/h 82% 0in /  0.0mm 0 W/m2
21:21 40.8 °F /  4.9 °C 35.8 °F /  2.1 °C 30.5in /  1033.2hPa Calm   3mph /  4.8km/h 82% 0in /  0.0mm 0 W/m2
21:26 40.8 °F /  4.9 °C 35.8 °F /  2.1 °C 30.5in /  1033.2hPa ESE 0.9mph /  1.4km/h 4mph /  6.4km/h 82% 0in /  0.0mm 0 W/m2
21:31 40.8 °F /  4.9 °C 35.8 °F /  2.1 °C 30.5in /  1033.2hPa East 0.9mph /  1.4km/h 4mph /  6.4km/h 82% 0in /  0.0mm 0 W/m2
21:37 40.8 °F /  4.9 °C 35.8 °F /  2.1 °C 30.5in /  1033.2hPa East 2mph /  3.2km/h 3mph /  4.8km/h 82% 0in /  0.0mm 0 W/m2
21:42 40.8 °F /  4.9 °C 35.8 °F /  2.1 °C 30.5in /  1033.2hPa ENE 2mph /  3.2km/h 4mph /  6.4km/h 82% 0in /  0.0mm 0 W/m2
21:47 40.8 °F /  4.9 °C 35.8 °F /  2.1 °C 30.5in /  1033.2hPa East 2mph /  3.2km/h 6mph /  9.7km/h 82% 0in /  0.0mm 0 W/m2
21:52 40.6 °F /  4.8 °C 35.6 °F /  2 °C 30.5in /  1033.2hPa ESE 2.9mph /  4.7km/h 7mph /  11.3km/h 82% 0in /  0.0mm 0 W/m2
21:57 40.6 °F /  4.8 °C 35.6 °F /  2 °C 30.5in /  1033.2hPa East 2mph /  3.2km/h 3mph /  4.8km/h 82% 0in /  0.0mm 0 W/m2
22:02 40.6 °F /  4.8 °C 35.6 °F /  2 °C 30.5in /  1033.2hPa ESE 2mph /  3.2km/h 4mph /  6.4km/h 82% 0in /  0.0mm 0 W/m2
22:07 40.6 °F /  4.8 °C 35.2 °F /  1.8 °C 30.5in /  1033.2hPa ESE 2.9mph /  4.7km/h 4mph /  6.4km/h 81% 0in /  0.0mm 0 W/m2
22:12 40.6 °F /  4.8 °C 35.2 °F /  1.8 °C 30.5in /  1033.2hPa ESE 2.9mph /  4.7km/h 7mph /  11.3km/h 81% 0in /  0.0mm 0 W/m2
22:17 40.6 °F /  4.8 °C 35.6 °F /  2 °C 30.5in /  1033.2hPa NE 0.9mph /  1.4km/h 3mph /  4.8km/h 82% 0in /  0.0mm 0 W/m2
22:22 40.6 °F /  4.8 °C 35.2 °F /  1.8 °C 30.5in /  1033.2hPa East 2.9mph /  4.7km/h 7mph /  11.3km/h 81% 0in /  0.0mm 0 W/m2
22:27 40.6 °F /  4.8 °C 35.2 °F /  1.8 °C 30.5in /  1033.2hPa ESE 2mph /  3.2km/h 4mph /  6.4km/h 81% 0in /  0.0mm 0 W/m2
22:32 40.6 °F /  4.8 °C 35.2 °F /  1.8 °C 30.5in /  1033.2hPa East 4mph /  6.4km/h 7mph /  11.3km/h 81% 0in /  0.0mm 0 W/m2
22:37 40.6 °F /  4.8 °C 35.2 °F /  1.8 °C 30.5in /  1033.2hPa ESE 2.9mph /  4.7km/h 4mph /  6.4km/h 81% 0in /  0.0mm 0 W/m2
22:42 40.6 °F /  4.8 °C 35.2 °F /  1.8 °C 30.5in /  1033.5hPa East 2mph /  3.2km/h 7mph /  11.3km/h 81% 0in /  0.0mm 0 W/m2
22:47 40.6 °F /  4.8 °C 35.2 °F /  1.8 °C 30.5in /  1033.5hPa East 4mph /  6.4km/h 4mph /  6.4km/h 81% 0in /  0.0mm 0 W/m2
22:52 40.5 °F /  4.7 °C 35.1 °F /  1.7 °C 30.5in /  1033.2hPa ESE 2mph /  3.2km/h 7mph /  11.3km/h 81% 0in /  0.0mm 0 W/m2
22:57 40.5 °F /  4.7 °C 35.1 °F /  1.7 °C 30.5in /  1033.2hPa ENE 6mph /  9.7km/h 6mph /  9.7km/h 81% 0in /  0.0mm 0 W/m2
23:02 40.3 °F /  4.6 °C 34.9 °F /  1.6 °C 30.5in /  1033.2hPa ESE 2.9mph /  4.7km/h 9mph /  14.5km/h 81% 0in /  0.0mm 0 W/m2
23:07 40.3 °F /  4.6 °C 34.9 °F /  1.6 °C 30.5in /  1033.5hPa East 2.9mph /  4.7km/h 6mph /  9.7km/h 81% 0in /  0.0mm 0 W/m2
23:12 40.1 °F /  4.5 °C 34.7 °F /  1.5 °C 30.5in /  1033.2hPa ESE 2mph /  3.2km/h 9mph /  14.5km/h 81% 0in /  0.0mm 0 W/m2
23:17 39.7 °F /  4.3 °C 34.7 °F /  1.5 °C 30.5in /  1033.2hPa ESE 2mph /  3.2km/h 3mph /  4.8km/h 82% 0in /  0.0mm 0 W/m2
23:22 39.7 °F /  4.3 °C 34.7 °F /  1.5 °C 30.5in /  1033.2hPa East 2.9mph /  4.7km/h 6mph /  9.7km/h 82% 0in /  0.0mm 0 W/m2
23:27 39.6 °F /  4.2 °C 34.5 °F /  1.4 °C 30.5in /  1033.2hPa East 6mph /  9.7km/h 7mph /  11.3km/h 82% 0in /  0.0mm 0 W/m2
23:32 39.6 °F /  4.2 °C 34.5 °F /  1.4 °C 30.5in /  1033.2hPa ENE 2mph /  3.2km/h 6mph /  9.7km/h 82% 0in /  0.0mm 0 W/m2
23:37 39.6 °F /  4.2 °C 34.5 °F /  1.4 °C 30.5in /  1033.2hPa SE 2mph /  3.2km/h 5mph /  8km/h 82% 0in /  0.0mm 0 W/m2
23:42 39.6 °F /  4.2 °C 34.5 °F /  1.4 °C 30.5in /  1033.2hPa ESE 2.9mph /  4.7km/h 6mph /  9.7km/h 82% 0in /  0.0mm 0 W/m2
23:47 39.6 °F /  4.2 °C 34.5 °F /  1.4 °C 30.5in /  1033.2hPa ESE 4mph /  6.4km/h 7mph /  11.3km/h 82% 0in /  0.0mm 0 W/m2
23:52 39.6 °F /  4.2 °C 34.5 °F /  1.4 °C 30.5in /  1032.8hPa ESE 6mph /  9.7km/h 6mph /  9.7km/h 82% 0in /  0.0mm 0 W/m2
23:57 39.6 °F /  4.2 °C 34.5 °F /  1.4 °C 30.5in /  1032.8hPa ESE 2mph /  3.2km/h 4mph /  6.4km/h 82% 0in /  0.0mm 0 W/m2
Juneau County Weather
Compliments of Weather Underground - 4 mb